Time;durP1;ratioP1;P1;durP2;ratioP2;P2;SDS_P1;SDS_P2;PMS_P1;PMS_P2;Temp;Humidity;BMP_temperature;BMP_pressure;BME280_temperature;BME280_humidity;BME280_pressure;Samples;Min_cycle;Max_cycle;Signal;HPM_P1;HPM_P2
2023/03/28 00:01:50;;;;;;;10.60;5.20;;;1.00;99.90;;;;;;5057182;28;20673;-68
2023/03/28 00:04:16;;;;;;;1.40;1.30;;;1.00;99.90;;;;;;5057665;28;20230;-68
2023/03/28 00:06:44;;;;;;;8.83;5.20;;;0.90;99.90;;;;;;5056651;28;20163;-68
2023/03/28 00:09:11;;;;;;;2.70;1.83;;;0.90;99.90;;;;;;5055353;28;20508;-68
2023/03/28 00:11:36;;;;;;;15.70;7.87;;;0.90;99.90;;;;;;5055444;28;20417;-67
2023/03/28 00:14:02;;;;;;;6.43;4.20;;;0.90;99.90;;;;;;5055123;28;20421;-66
2023/03/28 00:16:31;;;;;;;6.60;2.20;;;0.80;99.90;;;;;;5056135;28;20406;-67
2023/03/28 00:19:01;;;;;;;5.30;4.47;;;0.80;99.90;;;;;;5059988;28;20341;-67
2023/03/28 00:21:29;;;;;;;3.03;2.43;;;0.90;99.90;;;;;;5061700;28;20453;-67
2023/03/28 00:24:00;;;;;;;4.40;3.20;;;0.80;99.90;;;;;;5048541;28;20820;-67
2023/03/28 00:26:27;;;;;;;6.10;3.87;;;0.80;99.90;;;;;;5049732;28;20401;-67
2023/03/28 00:28:54;;;;;;;2.10;1.63;;;1.10;99.90;;;;;;5054369;28;20492;-68
2023/03/28 00:31:21;;;;;;;1.17;1.00;;;1.00;99.90;;;;;;5052565;28;20485;-69
2023/03/28 00:33:47;;;;;;;1.20;1.10;;;0.80;99.90;;;;;;5053340;28;20486;-70
2023/03/28 00:36:25;;;;;;;0.80;0.80;;;0.80;99.90;;;;;;5053459;28;20401;-68
2023/03/28 00:39:00;;;;;;;0.97;0.97;;;0.80;99.90;;;;;;5056461;28;20467;-67
2023/03/28 00:41:30;;;;;;;8.07;1.20;;;0.80;99.90;;;;;;5059582;28;20444;-67
2023/03/28 00:43:56;;;;;;;2.17;1.50;;;0.80;99.90;;;;;;5060845;28;20433;-68
2023/03/28 00:46:40;;;;;;;1.53;0.93;;;0.80;99.90;;;;;;5039920;28;20425;-68
2023/03/28 00:49:13;;;;;;;0.90;0.90;;;0.80;99.90;;;;;;5053724;28;20854;-69
2023/03/28 00:51:43;;;;;;;0.80;0.80;;;0.80;99.90;;;;;;5037860;28;20397;-68
2023/03/28 00:54:12;;;;;;;0.87;0.87;;;0.80;99.90;;;;;;5055246;28;20429;-67
2023/03/28 00:56:41;;;;;;;3.27;1.50;;;0.80;99.90;;;;;;5053417;28;20409;-68
2023/03/28 00:59:10;;;;;;;0.93;0.80;;;0.80;99.90;;;;;;5053890;28;20409;-67
2023/03/28 01:01:36;;;;;;;1.47;1.13;;;0.90;99.90;;;;;;5055314;28;20441;-67
2023/03/28 01:04:02;;;;;;;1.30;1.10;;;0.80;99.90;;;;;;5053466;28;20441;-67
2023/03/28 01:06:31;;;;;;;2.40;1.00;;;0.80;99.90;;;;;;5056532;28;20171;-68
2023/03/28 01:08:58;;;;;;;2.13;1.00;;;0.80;99.90;;;;;;5036485;28;20417;-68
2023/03/28 01:11:25;;;;;;;1.67;1.10;;;0.80;99.90;;;;;;5056540;28;20420;-67
2023/03/28 01:13:52;;;;;;;1.53;1.43;;;0.80;99.90;;;;;;5056890;28;20881;-68
2023/03/28 01:16:20;;;;;;;1.30;1.20;;;0.80;99.90;;;;;;5045047;28;20425;-67
2023/03/28 01:18:50;;;;;;;1.50;1.00;;;0.80;99.90;;;;;;5049303;28;20461;-68
2023/03/28 01:21:47;;;;;;;2.10;1.10;;;0.80;99.90;;;;;;5054835;28;20540;-67
2023/03/28 01:24:25;;;;;;;1.63;1.53;;;0.80;99.90;;;;;;5056275;28;20440;-67
2023/03/28 01:27:15;;;;;;;6.40;1.10;;;0.80;99.90;;;;;;5054783;28;20409;-67
2023/03/28 01:30:02;;;;;;;1.07;0.97;;;0.80;99.90;;;;;;5056332;28;20394;-68
2023/03/28 01:33:04;;;;;;;3.83;1.00;;;0.70;99.90;;;;;;5051765;28;20413;-68
2023/03/28 01:36:04;;;;;;;0.97;0.97;;;0.80;99.90;;;;;;5059116;28;20407;-68
2023/03/28 01:38:33;;;;;;;0.80;0.80;;;0.70;99.90;;;;;;5015781;28;20503;-67
2023/03/28 01:41:34;;;;;;;2.30;1.33;;;0.80;99.90;;;;;;5050566;28;20908;-69
2023/03/28 01:44:26;;;;;;;1.60;1.10;;;0.90;99.90;;;;;;5009777;28;20436;-68
2023/03/28 01:47:15;;;;;;;0.83;0.80;;;0.90;99.90;;;;;;5052017;28;20416;-68
2023/03/28 01:50:02;;;;;;;4.27;1.10;;;1.00;99.90;;;;;;5053620;28;20419;-67
2023/03/28 01:52:35;;;;;;;1.40;0.93;;;1.00;99.90;;;;;;5052671;28;20898;-68
2023/03/28 01:55:06;;;;;;;1.10;0.90;;;1.00;99.90;;;;;;5046440;28;20517;-68
2023/03/28 01:57:40;;;;;;;2.10;0.90;;;1.10;99.90;;;;;;5062512;28;20454;-67
2023/03/28 02:00:18;;;;;;;2.20;1.23;;;1.20;99.90;;;;;;5052494;28;20397;-69
2023/03/28 02:03:18;;;;;;;1.00;0.90;;;1.10;99.90;;;;;;5052947;28;20825;-68
2023/03/28 02:05:47;;;;;;;0.90;0.80;;;1.10;99.90;;;;;;5045815;28;20445;-68
2023/03/28 02:08:14;;;;;;;1.67;0.80;;;1.00;99.90;;;;;;5051721;28;20415;-69
2023/03/28 02:10:43;;;;;;;1.20;1.10;;;0.90;99.90;;;;;;5051776;28;20444;-67
2023/03/28 02:13:14;;;;;;;1.47;1.37;;;0.80;99.90;;;;;;5053756;28;20413;-68
2023/03/28 02:15:44;;;;;;;1.23;0.97;;;0.70;99.90;;;;;;5055863;28;20475;-66
2023/03/28 02:18:22;;;;;;;1.63;1.20;;;0.70;99.90;;;;;;5052795;28;20397;-68
2023/03/28 02:20:55;;;;;;;1.00;1.00;;;0.60;99.90;;;;;;5055331;28;20405;-67
2023/03/28 02:23:44;;;;;;;1.87;1.67;;;0.60;99.90;;;;;;5056334;28;20429;-69
2023/03/28 02:26:11;;;;;;;4.63;1.17;;;0.50;99.90;;;;;;5049743;28;20417;-69
2023/03/28 02:28:37;;;;;;;1.47;1.37;;;0.60;99.90;;;;;;5057591;28;20446;-69
2023/03/28 02:31:06;;;;;;;2.20;1.27;;;0.60;99.90;;;;;;5052854;28;20415;-68
2023/03/28 02:33:46;;;;;;;2.60;1.50;;;0.60;99.90;;;;;;5051513;28;20433;-68
2023/03/28 02:36:18;;;;;;;1.50;1.27;;;0.60;99.90;;;;;;5036573;28;20421;-67
2023/03/28 02:38:43;;;;;;;3.17;1.13;;;0.60;99.90;;;;;;5051291;28;20398;-69
2023/03/28 02:41:27;;;;;;;3.20;1.77;;;0.50;99.90;;;;;;5051718;28;20460;-69
2023/03/28 02:44:19;;;;;;;0.90;0.90;;;0.40;99.90;;;;;;5051291;28;20562;-69
2023/03/28 02:47:00;;;;;;;2.73;1.00;;;0.40;99.90;;;;;;5055365;28;20401;-67
2023/03/28 02:49:33;;;;;;;1.03;0.97;;;0.30;99.90;;;;;;5055599;28;20490;-68
2023/03/28 02:52:13;;;;;;;2.27;1.37;;;0.30;99.90;;;;;;5048718;28;20769;-69
2023/03/28 02:54:46;;;;;;;4.30;1.33;;;0.30;99.90;;;;;;5056194;28;20436;-68
2023/03/28 02:57:26;;;;;;;1.00;1.00;;;0.40;99.90;;;;;;5060908;28;20412;-68
2023/03/28 03:00:00;;;;;;;1.10;1.00;;;0.40;99.90;;;;;;5043641;28;20486;-69
2023/03/28 03:02:27;;;;;;;1.20;1.13;;;0.50;99.90;;;;;;5058735;28;20478;-68
2023/03/28 03:04:56;;;;;;;1.80;1.20;;;0.60;99.90;;;;;;5055635;28;20499;-69
2023/03/28 03:07:23;;;;;;;1.20;1.10;;;0.60;99.90;;;;;;5056103;28;20991;-68
2023/03/28 03:09:52;;;;;;;1.13;1.03;;;0.70;99.90;;;;;;5055665;28;20412;-68
2023/03/28 03:12:19;;;;;;;2.23;1.93;;;0.70;99.90;;;;;;5063420;28;20523;-69
2023/03/28 03:14:45;;;;;;;1.20;1.10;;;0.70;99.90;;;;;;5059875;28;20451;-68
2023/03/28 03:17:10;;;;;;;1.87;1.67;;;0.80;99.90;;;;;;5055979;28;20413;-69
2023/03/28 03:19:36;;;;;;;2.90;2.10;;;0.80;99.90;;;;;;5059673;28;20224;-68
2023/03/28 03:22:02;;;;;;;3.27;1.20;;;0.90;99.90;;;;;;5054666;28;20309;-68
2023/03/28 03:24:28;;;;;;;1.53;1.13;;;0.90;99.90;;;;;;5054874;28;20209;-67
2023/03/28 03:26:53;;;;;;;6.50;1.23;;;0.90;99.90;;;;;;5055922;28;20414;-66
2023/03/28 03:29:19;;;;;;;3.13;1.87;;;0.80;99.90;;;;;;5055419;28;20182;-69
2023/03/28 03:31:45;;;;;;;1.97;1.40;;;0.80;99.90;;;;;;5061193;28;20182;-68
2023/03/28 03:34:11;;;;;;;4.43;1.20;;;0.80;99.90;;;;;;5045815;28;20444;-69
2023/03/28 03:36:36;;;;;;;1.40;1.30;;;0.70;99.90;;;;;;5055721;28;20603;-68
2023/03/28 03:39:02;;;;;;;1.77;1.50;;;0.70;99.90;;;;;;5058334;28;20174;-66
2023/03/28 03:41:28;;;;;;;1.63;1.53;;;0.70;99.90;;;;;;5062863;28;20864;-68
2023/03/28 03:43:54;;;;;;;1.70;1.30;;;0.70;99.90;;;;;;5065282;28;20943;-69
2023/03/28 03:46:19;;;;;;;3.67;1.33;;;0.60;99.90;;;;;;5058453;28;20224;-69
2023/03/28 03:48:45;;;;;;;2.90;1.50;;;0.70;99.90;;;;;;5062247;28;20536;-68
2023/03/28 03:51:10;;;;;;;1.67;1.10;;;0.60;99.90;;;;;;5058621;28;20179;-69
2023/03/28 03:53:37;;;;;;;7.70;1.50;;;0.70;99.90;;;;;;5055718;28;20345;-67
2023/03/28 03:56:05;;;;;;;1.37;1.27;;;0.60;99.90;;;;;;5055795;28;20175;-69
2023/03/28 03:58:30;;;;;;;1.50;1.40;;;0.50;99.90;;;;;;5047709;28;20946;-67
2023/03/28 04:00:57;;;;;;;1.87;1.20;;;0.50;99.90;;;;;;5063805;28;20418;-69
2023/03/28 04:03:23;;;;;;;1.63;1.17;;;0.50;99.90;;;;;;5055251;28;20202;-68
2023/03/28 04:05:48;;;;;;;3.50;1.97;;;0.50;99.90;;;;;;5061613;28;20413;-67
2023/03/28 04:08:14;;;;;;;1.23;1.10;;;0.50;99.90;;;;;;5055017;28;20182;-69
2023/03/28 04:10:41;;;;;;;1.20;1.10;;;0.50;99.90;;;;;;5055973;28;20175;-68
2023/03/28 04:13:06;;;;;;;2.97;1.70;;;0.50;99.90;;;;;;5055185;28;20227;-67
2023/03/28 04:15:32;;;;;;;1.20;1.20;;;0.40;99.90;;;;;;5055670;28;20437;-67
2023/03/28 04:17:57;;;;;;;2.80;1.57;;;0.30;99.90;;;;;;5065053;28;20178;-67
2023/03/28 04:20:24;;;;;;;2.30;1.10;;;0.30;99.90;;;;;;5059326;28;20638;-68
2023/03/28 04:22:50;;;;;;;3.83;1.70;;;0.30;99.90;;;;;;5063018;28;20198;-69
2023/03/28 04:25:16;;;;;;;1.30;1.20;;;0.30;99.90;;;;;;5064544;28;20429;-68
2023/03/28 04:27:47;;;;;;;1.50;1.40;;;0.20;99.90;;;;;;5059938;28;20163;-68
2023/03/28 04:30:16;;;;;;;3.03;1.80;;;0.20;99.90;;;;;;5057649;28;20408;-67
2023/03/28 04:32:42;;;;;;;3.30;2.03;;;0.20;99.90;;;;;;5057725;28;20445;-68
2023/03/28 04:35:09;;;;;;;4.23;1.50;;;0.20;99.90;;;;;;5060133;28;20434;-68
2023/03/28 04:37:36;;;;;;;2.30;1.50;;;0.20;99.90;;;;;;5064497;28;20496;-68
2023/03/28 04:40:09;;;;;;;4.30;1.40;;;0.20;99.90;;;;;;5041175;28;20401;-68
2023/03/28 04:42:35;;;;;;;2.83;1.37;;;0.20;99.90;;;;;;5066284;28;20448;-68
2023/03/28 04:45:01;;;;;;;1.77;1.30;;;0.20;99.90;;;;;;5058327;28;20425;-68
2023/03/28 04:47:27;;;;;;;3.27;1.40;;;0.20;99.90;;;;;;5059817;28;20475;-67
2023/03/28 04:49:53;;;;;;;6.20;1.73;;;0.30;99.90;;;;;;5055673;28;20177;-68
2023/03/28 04:52:18;;;;;;;6.80;1.83;;;0.40;99.90;;;;;;5058483;28;20284;-68
2023/03/28 04:54:44;;;;;;;1.57;1.37;;;0.40;99.90;;;;;;5063586;28;20488;-68
2023/03/28 04:57:10;;;;;;;1.67;1.40;;;0.40;99.90;;;;;;5056426;28;20614;-68
2023/03/28 04:59:36;;;;;;;2.67;1.83;;;0.50;99.90;;;;;;5056875;28;20199;-68
2023/03/28 05:02:01;;;;;;;2.20;1.67;;;0.50;99.90;;;;;;5056517;28;20449;-69
2023/03/28 05:04:27;;;;;;;1.20;1.10;;;0.50;99.90;;;;;;5056724;28;20214;-68
2023/03/28 05:06:52;;;;;;;1.53;1.20;;;0.40;99.90;;;;;;5056216;28;20213;-68
2023/03/28 05:09:18;;;;;;;0.93;0.93;;;0.40;99.90;;;;;;5059322;28;20194;-68
2023/03/28 05:11:44;;;;;;;2.33;1.30;;;0.40;99.90;;;;;;5057011;28;20625;-68
2023/03/28 05:14:10;;;;;;;2.50;1.20;;;0.50;99.90;;;;;;5057491;28;20234;-68
2023/03/28 05:16:36;;;;;;;5.30;1.97;;;0.50;99.90;;;;;;5053904;28;20768;-68
2023/03/28 05:19:02;;;;;;;1.37;1.27;;;0.60;99.90;;;;;;5054203;28;20433;-67
2023/03/28 05:21:28;;;;;;;1.70;1.20;;;0.70;99.90;;;;;;5057306;28;20232;-69
2023/03/28 05:23:53;;;;;;;2.93;1.50;;;0.70;99.90;;;;;;5052549;28;20801;-68
2023/03/28 05:26:19;;;;;;;1.40;1.30;;;0.70;99.90;;;;;;5078316;22;20246;-73
2023/03/28 05:28:45;;;;;;;1.00;1.00;;;0.70;99.90;;;;;;5054545;28;20563;-74
2023/03/28 05:31:11;;;;;;;1.30;1.20;;;0.70;99.90;;;;;;5053734;28;20459;-74
2023/03/28 05:33:37;;;;;;;4.20;1.87;;;0.60;99.90;;;;;;5054098;28;20416;-73
2023/03/28 05:36:03;;;;;;;2.13;1.30;;;0.60;99.90;;;;;;5053400;28;20432;-73
2023/03/28 05:38:32;;;;;;;3.23;1.83;;;0.60;99.90;;;;;;5053749;28;20593;-73
2023/03/28 05:40:57;;;;;;;2.10;1.70;;;0.50;99.90;;;;;;5052328;28;20961;-73
2023/03/28 05:43:24;;;;;;;2.20;1.40;;;0.50;99.90;;;;;;5051466;28;20405;-74
2023/03/28 05:45:49;;;;;;;1.13;1.03;;;0.60;99.90;;;;;;5052028;28;20198;-73
2023/03/28 05:48:15;;;;;;;4.97;2.00;;;0.60;99.90;;;;;;5052223;28;20997;-73
2023/03/28 05:50:41;;;;;;;3.00;1.90;;;0.70;99.90;;;;;;5051865;28;20206;-74
2023/03/28 05:53:07;;;;;;;1.60;1.50;;;0.90;99.90;;;;;;5052158;28;20412;-73
2023/03/28 05:55:33;;;;;;;3.57;1.27;;;1.50;99.90;;;;;;5051103;28;20521;-74
2023/03/28 05:57:59;;;;;;;1.20;1.10;;;2.00;99.90;;;;;;5052014;28;20563;-73
2023/03/28 06:00:25;;;;;;;2.70;1.33;;;2.40;99.90;;;;;;5051444;28;20167;-74
2023/03/28 06:02:51;;;;;;;3.97;1.30;;;2.20;99.90;;;;;;5051496;28;20453;-73
2023/03/28 06:05:17;;;;;;;1.00;0.90;;;2.80;99.90;;;;;;5051238;28;20409;-74
2023/03/28 06:07:44;;;;;;;1.77;1.13;;;2.40;99.90;;;;;;5051476;28;20183;-74
2023/03/28 06:10:11;;;;;;;2.03;1.43;;;3.00;99.90;;;;;;5051497;28;20397;-73
2023/03/28 06:12:37;;;;;;;1.50;1.00;;;3.20;99.90;;;;;;5051174;28;20738;-73
2023/03/28 06:15:03;;;;;;;2.07;1.20;;;2.70;99.90;;;;;;5051228;28;20405;-73
2023/03/28 06:17:29;;;;;;;1.63;1.47;;;2.90;99.90;;;;;;5051091;28;20195;-74
2023/03/28 06:19:55;;;;;;;4.20;1.50;;;3.20;99.90;;;;;;5051302;28;20409;-73
2023/03/28 06:22:20;;;;;;;2.40;1.60;;;3.90;99.90;;;;;;5051922;28;20183;-72
2023/03/28 06:24:46;;;;;;;2.03;1.30;;;3.40;99.90;;;;;;5052137;28;20179;-73
2023/03/28 06:27:11;;;;;;;1.20;1.07;;;3.80;99.90;;;;;;5052416;28;20206;-72
2023/03/28 06:29:37;;;;;;;2.20;1.47;;;4.50;99.90;;;;;;5052597;28;20197;-71
2023/03/28 06:32:03;;;;;;;1.47;1.10;;;4.80;99.90;;;;;;5056711;28;20174;-71
2023/03/28 06:34:28;;;;;;;2.70;0.97;;;4.70;99.90;;;;;;5056095;28;20174;-74
2023/03/28 06:36:54;;;;;;;6.33;1.70;;;4.80;99.90;;;;;;5056156;28;20187;-72
2023/03/28 06:39:20;;;;;;;2.20;1.27;;;5.00;99.90;;;;;;5057407;28;20610;-72
2023/03/28 06:41:45;;;;;;;1.10;1.00;;;5.60;99.90;;;;;;5056464;28;20681;-73
2023/03/28 06:44:11;;;;;;;1.17;1.07;;;6.00;99.90;;;;;;5054495;28;20172;-73
2023/03/28 06:46:36;;;;;;;2.20;1.33;;;5.70;99.90;;;;;;5053960;28;20200;-73
2023/03/28 06:49:02;;;;;;;2.20;1.10;;;5.30;99.90;;;;;;5053758;28;20177;-71
2023/03/28 06:51:28;;;;;;;1.93;1.40;;;5.40;99.90;;;;;;5053861;28;20175;-72
2023/03/28 06:53:53;;;;;;;1.20;1.00;;;6.00;99.90;;;;;;5050757;28;20180;-69
2023/03/28 06:56:19;;;;;;;2.07;1.13;;;5.80;99.90;;;;;;5053578;28;20254;-72
2023/03/28 06:58:45;;;;;;;1.50;1.13;;;5.70;99.90;;;;;;5054500;28;20242;-73
2023/03/28 07:01:10;;;;;;;2.03;0.90;;;6.20;99.90;;;;;;5053460;28;20254;-73
2023/03/28 07:03:36;;;;;;;1.13;1.00;;;6.30;99.90;;;;;;5053820;28;20206;-72
2023/03/28 07:06:07;;;;;;;1.73;1.00;;;6.20;99.90;;;;;;5053067;28;20198;-74
2023/03/28 07:08:33;;;;;;;2.80;1.87;;;6.80;99.90;;;;;;5051418;28;20190;-69
2023/03/28 07:10:59;;;;;;;2.43;1.60;;;5.90;99.90;;;;;;5053576;28;20421;-68
2023/03/28 07:13:25;;;;;;;9.57;6.00;;;6.10;99.90;;;;;;5053944;28;20417;-71
2023/03/28 07:16:06;;;;;;;1.87;1.20;;;6.50;99.90;;;;;;5053616;28;20441;-78
2023/03/28 07:18:32;;;;;;;2.27;1.23;;;6.10;99.90;;;;;;5050140;28;20477;-71
2023/03/28 07:20:58;;;;;;;1.47;0.90;;;5.60;99.90;;;;;;5053225;28;20415;-73
2023/03/28 07:23:23;;;;;;;2.00;1.30;;;5.40;99.90;;;;;;5053643;28;20420;-73
2023/03/28 07:25:49;;;;;;;2.43;1.47;;;5.90;99.90;;;;;;5052772;28;20424;-72
2023/03/28 07:28:15;;;;;;;1.63;1.53;;;6.50;99.90;;;;;;5053051;28;20416;-73
2023/03/28 07:30:41;;;;;;;0.83;0.83;;;6.30;99.90;;;;;;5052957;28;20514;-72
2023/03/28 07:33:06;;;;;;;2.57;1.33;;;7.40;99.90;;;;;;5041531;28;20580;-73
2023/03/28 07:35:32;;;;;;;1.67;1.27;;;6.90;99.90;;;;;;5053067;28;20312;-72
2023/03/28 07:37:58;;;;;;;2.00;0.93;;;6.90;99.90;;;;;;5052979;28;20179;-73
2023/03/28 07:40:23;;;;;;;2.20;1.20;;;8.20;99.90;;;;;;5052903;28;20175;-72
2023/03/28 07:42:49;;;;;;;1.80;1.10;;;7.00;99.90;;;;;;5052436;28;20650;-72
2023/03/28 07:45:15;;;;;;;2.70;1.10;;;7.60;99.90;;;;;;5052518;28;20175;-74
2023/03/28 07:47:41;;;;;;;3.43;1.07;;;7.70;99.90;;;;;;5052412;28;20761;-72
2023/03/28 07:50:07;;;;;;;2.10;0.93;;;6.80;99.90;;;;;;5038176;28;20665;-72
2023/03/28 07:52:33;;;;;;;1.53;1.10;;;7.00;99.90;;;;;;5052058;28;20413;-73
2023/03/28 07:54:59;;;;;;;4.13;1.23;;;6.80;99.90;;;;;;5052315;28;20509;-72
2023/03/28 07:57:24;;;;;;;2.53;1.10;;;6.30;99.90;;;;;;5052427;28;20457;-74
2023/03/28 07:59:50;;;;;;;1.10;1.00;;;7.70;99.90;;;;;;5052864;28;20255;-73
2023/03/28 08:02:16;;;;;;;1.80;1.20;;;6.30;99.90;;;;;;5052699;28;20187;-72
2023/03/28 08:04:43;;;;;;;1.60;1.50;;;7.00;99.90;;;;;;5052329;28;20248;-73
2023/03/28 08:07:09;;;;;;;3.63;1.13;;;8.50;99.90;;;;;;5052707;28;20498;-72
2023/03/28 08:09:35;;;;;;;1.10;1.00;;;7.10;99.90;;;;;;5055092;28;20171;-74
2023/03/28 08:12:01;;;;;;;2.40;1.00;;;7.90;99.90;;;;;;5054284;28;20467;-72
2023/03/28 08:14:27;;;;;;;12.40;6.70;;;7.20;99.90;;;;;;5040980;28;20939;-78
2023/03/28 08:16:52;;;;;;;2.93;1.10;;;7.10;99.90;;;;;;5058781;28;20190;-73
2023/03/28 08:19:18;;;;;;;1.00;0.90;;;8.20;99.90;;;;;;5055809;28;20171;-70
2023/03/28 08:21:44;;;;;;;2.70;1.10;;;7.50;99.90;;;;;;5055586;28;20685;-73
2023/03/28 08:24:10;;;;;;;1.33;0.90;;;7.90;99.90;;;;;;5046963;28;20174;-72
2023/03/28 08:26:36;;;;;;;0.93;0.90;;;8.40;99.90;;;;;;5049724;28;20484;-71
2023/03/28 08:29:03;;;;;;;1.40;0.97;;;8.50;99.90;;;;;;5055265;28;20897;-72
2023/03/28 08:31:29;;;;;;;2.57;1.23;;;8.80;99.90;;;;;;5054873;28;20428;-72
2023/03/28 08:33:56;;;;;;;1.33;1.10;;;9.40;99.90;;;;;;5040584;28;20407;-71
2023/03/28 08:36:24;;;;;;;2.10;0.93;;;8.20;99.90;;;;;;5054247;28;20457;-73
2023/03/28 08:38:53;;;;;;;1.90;1.00;;;7.20;99.90;;;;;;5053406;28;20421;-75
2023/03/28 08:41:30;;;;;;;2.43;0.80;;;7.40;99.90;;;;;;5053345;28;20537;-71
2023/03/28 08:44:19;;;;;;;4.20;1.00;;;8.00;99.90;;;;;;5051048;28;20410;-72
2023/03/28 08:46:47;;;;;;;12.83;6.90;;;7.90;99.90;;;;;;5050802;28;20417;-69
2023/03/28 08:49:17;;;;;;;2.77;1.10;;;7.20;99.90;;;;;;5046033;28;20487;-72
2023/03/28 08:51:47;;;;;;;1.10;0.90;;;7.70;99.90;;;;;;5051660;28;20441;-72
2023/03/28 08:55:14;;;;;;;1.23;0.90;;;7.90;99.50;;;;;;5051506;28;20409;-73
2023/03/28 08:57:41;;;;;;;1.20;1.00;;;7.90;97.80;;;;;;4987661;28;20868;-72
2023/03/28 09:00:16;;;;;;;0.90;0.90;;;7.60;96.90;;;;;;5036631;28;21000;-73
2023/03/28 09:02:42;;;;;;;0.80;0.80;;;7.70;98.00;;;;;;5034848;28;20535;-72
2023/03/28 09:05:28;;;;;;;1.63;1.20;;;7.30;97.90;;;;;;5051656;28;20428;-73
2023/03/28 09:08:12;;;;;;;1.20;0.93;;;8.70;97.90;;;;;;5051731;28;20393;-72
2023/03/28 09:10:41;;;;;;;0.90;0.70;;;9.40;98.00;;;;;;5049462;28;20402;-72
2023/03/28 09:13:16;;;;;;;1.67;1.00;;;7.80;95.60;;;;;;5051963;28;20724;-73
2023/03/28 09:16:05;;;;;;;8.90;1.30;;;7.90;96.80;;;;;;5052276;28;20769;-72
2023/03/28 09:18:42;;;;;;;2.23;1.20;;;7.00;95.50;;;;;;5037243;28;20425;-71
2023/03/28 09:21:32;;;;;;;1.20;1.10;;;7.90;97.90;;;;;;5052288;28;20401;-72
2023/03/28 09:24:09;;;;;;;0.97;0.90;;;7.90;95.20;;;;;;5050463;28;20401;-73
2023/03/28 09:26:50;;;;;;;1.03;0.97;;;7.10;94.20;;;;;;5053008;28;20527;-72
2023/03/28 09:29:19;;;;;;;0.87;0.70;;;6.30;95.70;;;;;;5053961;28;20404;-72
2023/03/28 09:31:47;;;;;;;1.00;0.90;;;6.20;95.90;;;;;;5053447;28;20434;-72
2023/03/28 09:34:37;;;;;;;2.30;1.67;;;6.20;96.30;;;;;;5054064;28;20505;-72
2023/03/28 09:37:26;;;;;;;2.60;1.27;;;5.80;96.30;;;;;;5048263;28;20429;-72
2023/03/28 09:39:53;;;;;;;1.00;0.90;;;5.20;97.00;;;;;;5052965;28;20477;-72
2023/03/28 09:42:38;;;;;;;1.43;1.00;;;5.20;97.00;;;;;;5054343;28;20457;-71
2023/03/28 09:45:19;;;;;;;1.97;1.37;;;5.40;96.90;;;;;;5052981;28;20405;-71
2023/03/28 09:47:48;;;;;;;3.20;1.00;;;5.90;97.30;;;;;;5052499;28;20430;-72
2023/03/28 09:50:18;;;;;;;0.73;0.70;;;5.90;95.90;;;;;;5052524;28;20416;-72
2023/03/28 09:52:45;;;;;;;0.97;0.97;;;6.00;95.90;;;;;;5052301;28;20827;-70
2023/03/28 09:55:20;;;;;;;1.10;0.90;;;5.40;95.70;;;;;;5034513;28;20429;-71
2023/03/28 09:58:05;;;;;;;2.53;1.07;;;5.50;97.00;;;;;;5052749;28;20848;-73
2023/03/28 10:00:40;;;;;;;3.83;1.00;;;5.40;97.30;;;;;;5053057;28;20723;-72
2023/03/28 10:03:21;;;;;;;2.10;1.10;;;5.80;97.40;;;;;;5047069;28;20532;-72
2023/03/28 10:05:53;;;;;;;1.30;1.20;;;5.90;96.90;;;;;;5050989;28;20513;-71
2023/03/28 10:08:23;;;;;;;0.70;0.70;;;6.00;96.60;;;;;;5053078;28;20758;-72
2023/03/28 10:11:03;;;;;;;1.67;0.90;;;5.80;97.00;;;;;;5052643;28;20557;-72
2023/03/28 10:13:47;;;;;;;1.30;0.87;;;5.70;97.80;;;;;;5051036;28;20402;-70
2023/03/28 10:16:18;;;;;;;1.97;1.00;;;5.70;98.30;;;;;;5044801;28;20502;-72
2023/03/28 10:18:44;;;;;;;1.13;1.03;;;5.50;97.00;;;;;;5035061;28;20471;-71
2023/03/28 10:21:17;;;;;;;2.00;1.20;;;5.50;98.30;;;;;;5050406;28;20405;-71
2023/03/28 10:23:59;;;;;;;0.90;0.83;;;5.60;97.80;;;;;;5050235;28;20420;-72
2023/03/28 10:26:26;;;;;;;2.10;0.90;;;5.90;97.70;;;;;;5041272;28;20473;-71
2023/03/28 10:28:53;;;;;;;2.13;1.30;;;5.40;97.90;;;;;;5050782;28;20544;-72
2023/03/28 10:31:27;;;;;;;1.60;1.13;;;5.40;97.40;;;;;;5051862;28;20488;-72
2023/03/28 10:33:55;;;;;;;2.07;0.93;;;5.60;97.30;;;;;;5052624;28;20883;-72
2023/03/28 10:36:31;;;;;;;0.90;0.80;;;5.60;97.60;;;;;;5051212;28;20831;-71
2023/03/28 10:38:58;;;;;;;2.50;1.10;;;5.80;98.20;;;;;;5049289;28;20979;-71
2023/03/28 10:41:28;;;;;;;0.90;0.90;;;5.80;96.70;;;;;;5050312;28;20453;-71
2023/03/28 10:43:55;;;;;;;1.20;1.10;;;5.80;98.00;;;;;;5050316;28;20433;-70
2023/03/28 10:46:34;;;;;;;1.00;0.80;;;5.20;97.40;;;;;;5050521;28;20443;-72
2023/03/28 10:49:14;;;;;;;2.30;1.00;;;5.50;97.30;;;;;;5040963;28;20492;-71
2023/03/28 10:51:41;;;;;;;1.00;0.90;;;6.00;96.60;;;;;;5048841;28;20508;-72
2023/03/28 10:54:21;;;;;;;1.80;1.00;;;6.20;96.40;;;;;;5046905;28;20437;-72
2023/03/28 10:56:55;;;;;;;2.40;1.17;;;6.70;97.10;;;;;;5050162;28;20429;-72
2023/03/28 10:59:52;;;;;;;0.80;0.80;;;6.90;97.10;;;;;;5050199;28;20405;-72
2023/03/28 11:02:39;;;;;;;2.60;1.10;;;7.10;96.20;;;;;;5045171;28;20948;-71
2023/03/28 11:05:31;;;;;;;1.73;1.00;;;6.80;94.80;;;;;;5030608;28;20417;-72
2023/03/28 11:08:34;;;;;;;0.93;0.83;;;6.60;95.00;;;;;;5042050;28;20401;-71
2023/03/28 11:11:09;;;;;;;4.00;1.30;;;6.60;94.40;;;;;;5049626;28;20420;-72
2023/03/28 11:14:13;;;;;;;1.20;0.97;;;6.20;94.60;;;;;;5050493;28;20408;-71
2023/03/28 11:16:45;;;;;;;1.40;1.30;;;6.20;95.10;;;;;;5007767;28;20528;-72
2023/03/28 11:19:45;;;;;;;1.03;0.87;;;6.60;94.60;;;;;;5053923;28;20500;-72
2023/03/28 11:22:45;;;;;;;1.00;0.90;;;6.50;93.60;;;;;;5047933;28;20987;-72
2023/03/28 11:25:49;;;;;;;1.00;0.90;;;6.70;93.70;;;;;;5008060;28;20935;-72
2023/03/28 11:28:27;;;;;;;1.00;0.90;;;6.50;93.10;;;;;;5046268;28;20799;-72
2023/03/28 11:30:55;;;;;;;0.87;0.87;;;6.50;93.10;;;;;;5053377;28;20487;-72
2023/03/28 11:33:33;;;;;;;3.00;1.00;;;6.70;93.60;;;;;;5053651;28;20492;-72
2023/03/28 11:36:13;;;;;;;1.30;0.93;;;7.00;93.80;;;;;;5047742;28;20510;-72
2023/03/28 11:38:43;;;;;;;1.43;0.97;;;7.00;93.70;;;;;;5053691;28;20512;-72
2023/03/28 11:41:18;;;;;;;0.73;0.73;;;7.00;93.80;;;;;;5053657;28;20402;-72
2023/03/28 11:43:53;;;;;;;0.80;0.80;;;7.20;93.30;;;;;;5053645;28;20775;-73
2023/03/28 11:46:26;;;;;;;0.80;0.80;;;7.00;92.50;;;;;;5037014;28;20429;-72
2023/03/28 11:48:59;;;;;;;2.30;1.10;;;7.10;92.70;;;;;;5053881;28;20424;-73
2023/03/28 11:51:37;;;;;;;1.27;0.90;;;7.10;91.80;;;;;;5035736;28;20420;-73
2023/03/28 11:54:15;;;;;;;2.07;1.03;;;7.10;91.60;;;;;;5032605;28;20536;-72
2023/03/28 11:56:41;;;;;;;1.10;1.00;;;7.00;91.80;;;;;;5053088;28;20935;-73
2023/03/28 11:59:33;;;;;;;2.40;0.90;;;6.90;91.20;;;;;;5039871;28;20406;-72
2023/03/28 12:02:17;;;;;;;3.90;1.00;;;6.60;90.80;;;;;;5051053;28;20704;-72
2023/03/28 12:04:52;;;;;;;1.17;0.80;;;6.60;90.90;;;;;;5053223;28;20401;-72
2023/03/28 12:07:30;;;;;;;0.70;0.70;;;6.80;89.60;;;;;;5052908;28;20449;-72
2023/03/28 12:10:06;;;;;;;0.90;0.80;;;7.20;88.40;;;;;;5053163;28;20406;-73
2023/03/28 12:12:51;;;;;;;2.20;0.97;;;7.40;87.50;;;;;;5049528;28;20408;-73
2023/03/28 12:15:26;;;;;;;1.23;0.83;;;7.00;87.90;;;;;;5048618;28;20926;-72
2023/03/28 12:17:59;;;;;;;1.17;1.07;;;6.70;87.40;;;;;;5052640;28;20785;-72
2023/03/28 12:20:29;;;;;;;1.03;0.80;;;6.80;88.20;;;;;;5051032;28;20500;-73
2023/03/28 12:23:00;;;;;;;0.90;0.90;;;7.00;89.20;;;;;;5052680;28;20512;-72
2023/03/28 12:25:49;;;;;;;1.17;0.90;;;7.10;88.60;;;;;;5052625;28;20445;-73
2023/03/28 12:28:26;;;;;;;0.90;0.90;;;7.30;90.60;;;;;;5052537;28;20784;-73
2023/03/28 12:30:57;;;;;;;1.07;0.97;;;7.50;89.30;;;;;;5045782;28;20445;-74
2023/03/28 12:33:42;;;;;;;1.23;1.00;;;7.80;89.40;;;;;;5052843;28;20406;-72
2023/03/28 12:36:27;;;;;;;0.80;0.80;;;7.70;86.50;;;;;;5046114;28;20428;-73
2023/03/28 12:39:02;;;;;;;0.80;0.80;;;7.50;86.00;;;;;;5052739;28;20432;-72
2023/03/28 12:41:37;;;;;;;1.53;1.43;;;7.30;84.00;;;;;;5048660;28;20824;-72
2023/03/28 12:44:06;;;;;;;0.90;0.80;;;7.50;84.90;;;;;;5027851;28;20869;-71
2023/03/28 12:46:38;;;;;;;1.03;0.83;;;7.30;86.00;;;;;;5041453;28;20507;-71
2023/03/28 12:49:18;;;;;;;1.63;1.00;;;7.40;87.90;;;;;;5045608;28;20415;-72
2023/03/28 12:51:51;;;;;;;2.63;1.30;;;7.90;87.40;;;;;;5045837;28;20433;-71
2023/03/28 12:54:16;;;;;;;1.17;0.90;;;8.00;87.20;;;;;;5034980;28;20414;-72
2023/03/28 12:56:46;;;;;;;1.70;1.60;;;8.00;86.40;;;;;;5051373;28;20434;-72
2023/03/28 12:59:43;;;;;;;0.93;0.90;;;8.00;86.10;;;;;;5051703;28;20637;-72
2023/03/28 13:02:45;;;;;;;1.50;0.90;;;8.10;84.80;;;;;;5051452;28;20450;-72
2023/03/28 13:05:38;;;;;;;1.07;0.97;;;7.70;83.50;;;;;;5048561;28;20402;-71
2023/03/28 13:08:22;;;;;;;0.80;0.80;;;8.20;84.30;;;;;;5043987;28;20440;-71
2023/03/28 13:11:03;;;;;;;3.57;1.20;;;8.00;82.60;;;;;;5050110;28;20890;-71
2023/03/28 13:13:32;;;;;;;0.77;0.77;;;8.10;80.50;;;;;;5051457;28;20519;-71
2023/03/28 13:16:14;;;;;;;1.83;1.10;;;7.90;79.00;;;;;;5043029;28;20433;-71
2023/03/28 13:18:48;;;;;;;0.90;0.90;;;7.80;79.50;;;;;;5051486;28;20401;-72
2023/03/28 13:21:45;;;;;;;1.30;1.00;;;7.90;80.50;;;;;;5051451;28;20455;-71
2023/03/28 13:24:28;;;;;;;2.57;1.20;;;7.80;80.70;;;;;;5051435;28;20409;-71